createdAt,value
2022-10-05T00:00:02.498Z,76.30
2022-10-05T00:00:17.858Z,76.07
2022-10-05T00:00:29.798Z,76.37
2022-10-05T00:00:51.064Z,76.41
2022-10-05T00:01:20.553Z,76.17
2022-10-05T00:01:35.289Z,76.31
2022-10-05T00:01:48.467Z,76.21
2022-10-05T00:02:00.575Z,76.19
2022-10-05T00:02:21.896Z,76.03
2022-10-05T00:02:33.813Z,75.49
2022-10-05T00:02:46.626Z,75.45
2022-10-05T00:02:58.618Z,75.95
2022-10-05T00:03:11.782Z,75.87
2022-10-05T00:03:27.380Z,75.96
2022-10-05T00:03:41.104Z,75.73
2022-10-05T00:03:59.135Z,76.29
2022-10-05T00:04:22.669Z,76.02
2022-10-05T00:04:34.603Z,76.29
2022-10-05T00:04:48.754Z,76.15
2022-10-05T00:05:00.715Z,76.02
2022-10-05T00:05:30.220Z,76.00
2022-10-05T00:05:44.971Z,76.18
2022-10-05T00:05:57.540Z,76.28
2022-10-05T00:06:12.309Z,76.21
2022-10-05T00:06:25.926Z,76.15
2022-10-05T00:06:37.951Z,76.46
2022-10-05T00:07:22.925Z,76.52
2022-10-05T00:07:34.890Z,76.59
2022-10-05T00:07:47.225Z,76.50
2022-10-05T00:08:13.114Z,76.61
2022-10-05T00:08:30.000Z,76.79
2022-10-05T00:08:42.940Z,76.47
2022-10-05T00:08:54.840Z,76.47
2022-10-05T00:09:14.773Z,76.47
2022-10-05T00:09:32.201Z,76.47
2022-10-05T00:09:46.291Z,76.50
2022-10-05T00:09:59.764Z,76.37
2022-10-05T00:10:16.821Z,76.25
2022-10-05T00:10:29.287Z,76.38
2022-10-05T00:10:42.372Z,75.99
2022-10-05T00:10:54.261Z,76.23
2022-10-05T00:11:13.737Z,76.82
2022-10-05T00:11:25.655Z,76.49
2022-10-05T00:11:37.551Z,76.60
2022-10-05T00:11:50.995Z,76.62
2022-10-05T00:12:17.444Z,76.23
2022-10-05T00:12:29.869Z,76.45
2022-10-05T00:12:45.460Z,76.69
2022-10-05T00:12:57.366Z,76.18
2022-10-05T00:13:19.268Z,76.49
2022-10-05T00:13:31.462Z,76.30
2022-10-05T00:13:47.066Z,76.25
2022-10-05T00:13:59.330Z,76.43
2022-10-05T00:14:28.837Z,76.71
2022-10-05T00:14:41.128Z,76.63
2022-10-05T00:14:57.717Z,76.76
2022-10-05T00:15:13.249Z,77.00
2022-10-05T00:15:25.142Z,76.88
2022-10-05T00:15:37.076Z,76.75
2022-10-05T00:15:52.346Z,76.81
2022-10-05T00:16:08.300Z,76.85
2022-10-05T00:16:21.237Z,77.00
2022-10-05T00:16:34.798Z,77.06
2022-10-05T00:16:47.237Z,76.84
2022-10-05T00:17:01.429Z,77.14
2022-10-05T00:17:18.107Z,77.12
2022-10-05T00:17:30.517Z,77.23
2022-10-05T00:17:43.060Z,77.26
2022-10-05T00:17:55.663Z,76.99
2022-10-05T00:18:19.801Z,77.42
2022-10-05T00:18:32.494Z,76.85
2022-10-05T00:18:48.643Z,77.61
2022-10-05T00:19:00.598Z,77.08
2022-10-05T00:19:20.745Z,77.17
2022-10-05T00:19:36.360Z,77.13
2022-10-05T00:19:52.172Z,76.97
2022-10-05T00:20:25.305Z,76.96
2022-10-05T00:20:37.243Z,76.68
2022-10-05T00:20:49.440Z,76.60
2022-10-05T00:21:01.759Z,76.68
2022-10-05T00:21:22.362Z,76.82
2022-10-05T00:21:34.265Z,76.85
2022-10-05T00:21:46.173Z,76.83
2022-10-05T00:22:10.916Z,77.01
2022-10-05T00:22:29.699Z,76.90
2022-10-05T00:22:41.712Z,76.75
2022-10-05T00:23:00.627Z,76.30
2022-10-05T00:23:18.899Z,76.41
2022-10-05T00:23:31.903Z,75.91
2022-10-05T00:23:43.804Z,75.87
2022-10-05T00:23:57.796Z,76.15
2022-10-05T00:24:10.327Z,76.27
2022-10-05T00:24:24.862Z,75.99
2022-10-05T00:24:38.057Z,75.91
2022-10-05T00:24:54.979Z,75.69
2022-10-05T00:25:14.604Z,75.88
2022-10-05T00:25:27.020Z,76.10
2022-10-05T00:25:38.951Z,76.32
2022-10-05T00:25:51.111Z,76.35
2022-10-05T00:26:18.618Z,76.59
2022-10-05T00:26:33.305Z,76.68
2022-10-05T00:26:45.556Z,76.20
2022-10-05T00:27:01.441Z,76.91
2022-10-05T00:27:22.015Z,76.89
2022-10-05T00:27:37.440Z,76.52
2022-10-05T00:28:00.454Z,76.55
2022-10-05T00:28:26.734Z,76.67
2022-10-05T00:28:40.982Z,76.54
2022-10-05T00:28:54.416Z,76.90
2022-10-05T00:29:20.665Z,77.01
2022-10-05T00:29:34.294Z,76.85
2022-10-05T00:29:48.824Z,76.55
2022-10-05T00:30:11.123Z,76.76
2022-10-05T00:30:24.613Z,76.65
2022-10-05T00:30:36.530Z,76.50
2022-10-05T00:30:48.521Z,76.36
2022-10-05T00:31:00.881Z,76.04
2022-10-05T00:31:31.259Z,76.26
2022-10-05T00:31:43.286Z,76.44
2022-10-05T00:31:55.282Z,76.18
2022-10-05T00:32:10.040Z,76.13
2022-10-05T00:32:22.103Z,75.86
2022-10-05T00:32:33.998Z,76.09
2022-10-05T00:32:46.279Z,75.79
2022-10-05T00:32:59.880Z,76.37
2022-10-05T00:33:11.998Z,76.53
2022-10-05T00:33:24.018Z,76.53
2022-10-05T00:33:35.893Z,76.65
2022-10-05T00:33:48.986Z,76.27
2022-10-05T00:34:00.986Z,76.93
2022-10-05T00:34:12.932Z,76.93
2022-10-05T00:34:25.110Z,76.88
2022-10-05T00:34:37.299Z,76.50
2022-10-05T00:34:49.290Z,76.98
2022-10-05T00:35:02.474Z,76.61
2022-10-05T00:35:16.730Z,76.93
2022-10-05T00:35:30.686Z,77.11
2022-10-05T00:35:45.504Z,76.52
2022-10-05T00:35:57.429Z,77.28
2022-10-05T00:36:09.416Z,76.84
2022-10-05T00:36:21.445Z,76.81
2022-10-05T00:36:33.454Z,76.85
2022-10-05T00:36:45.851Z,76.91
2022-10-05T00:36:58.396Z,76.79
2022-10-05T00:37:10.452Z,76.41
2022-10-05T00:37:22.337Z,76.72
2022-10-05T00:37:34.577Z,76.87
2022-10-05T00:37:50.804Z,77.10
2022-10-05T00:38:02.775Z,76.83
2022-10-05T00:38:14.678Z,76.85
2022-10-05T00:38:28.541Z,76.91
2022-10-05T00:38:41.265Z,77.07
2022-10-05T00:38:53.719Z,77.31
2022-10-05T00:39:05.668Z,77.22
2022-10-05T00:39:18.558Z,77.51
2022-10-05T00:39:30.819Z,77.58
2022-10-05T00:39:42.849Z,77.73
2022-10-05T00:39:55.032Z,77.49
2022-10-05T00:40:27.841Z,77.47
2022-10-05T00:41:16.480Z,77.31
2022-10-05T00:41:47.167Z,77.23
2022-10-05T00:41:59.049Z,77.42
2022-10-05T00:42:13.932Z,76.96
2022-10-05T00:42:32.548Z,77.07
2022-10-05T00:42:59.268Z,77.25
2022-10-05T00:43:25.932Z,77.39
2022-10-05T00:44:01.926Z,77.99
2022-10-05T00:44:58.325Z,77.65
2022-10-05T00:45:18.330Z,77.12
2022-10-05T00:46:08.653Z,77.17
2022-10-05T00:46:40.073Z,77.13
2022-10-05T00:46:54.773Z,76.89
2022-10-05T00:47:13.352Z,77.33
2022-10-05T00:48:00.210Z,76.88
2022-10-05T00:48:14.738Z,76.44
2022-10-05T00:48:48.203Z,76.68
2022-10-05T00:49:02.639Z,76.58
2022-10-05T00:49:14.483Z,76.19
2022-10-05T00:49:47.850Z,76.06
2022-10-05T00:50:26.918Z,75.96
2022-10-05T00:51:13.627Z,76.46
2022-10-05T00:51:28.933Z,76.88
2022-10-05T00:51:48.185Z,76.40
2022-10-05T00:52:13.208Z,76.68
2022-10-05T00:52:40.052Z,76.68
2022-10-05T00:53:35.593Z,76.56
2022-10-05T00:54:01.808Z,76.19
2022-10-05T00:54:25.728Z,76.10
2022-10-05T00:54:46.160Z,76.03
2022-10-05T00:55:22.659Z,76.30
2022-10-05T00:56:18.159Z,76.28
2022-10-05T00:56:38.833Z,75.99
2022-10-05T00:56:59.304Z,76.11
2022-10-05T00:57:17.289Z,75.91
2022-10-05T00:57:32.136Z,75.96
2022-10-05T00:57:58.525Z,75.67
2022-10-05T00:58:34.613Z,75.76
2022-10-05T00:59:18.343Z,76.01
2022-10-05T00:59:45.138Z,75.99
2022-10-05T01:00:12.946Z,75.93
2022-10-05T01:00:26.827Z,76.42
2022-10-05T01:01:11.443Z,76.14
2022-10-05T01:01:35.783Z,75.53
2022-10-05T01:02:07.924Z,75.19
2022-10-05T01:02:34.363Z,75.46
2022-10-05T01:03:34.288Z,75.70
2022-10-05T01:03:52.115Z,75.51
2022-10-05T01:04:27.021Z,75.48
2022-10-05T01:05:00.092Z,75.50
2022-10-05T01:05:32.990Z,75.36
2022-10-05T01:05:47.822Z,75.77
2022-10-05T01:06:36.398Z,75.81
2022-10-05T01:07:03.196Z,75.29
2022-10-05T01:07:43.260Z,76.16
2022-10-05T01:08:00.718Z,75.89
2022-10-05T01:08:47.265Z,75.87
2022-10-05T01:09:22.486Z,75.67
2022-10-05T01:10:03.286Z,75.56
2022-10-05T01:10:37.882Z,75.84
2022-10-05T01:11:23.501Z,76.40
2022-10-05T01:11:58.001Z,76.41
2022-10-05T01:12:23.044Z,76.62
2022-10-05T01:12:55.526Z,77.05
2022-10-05T01:13:25.874Z,76.83
2022-10-05T01:13:37.699Z,77.31
2022-10-05T01:14:03.597Z,77.39
2022-10-05T01:14:21.390Z,77.23
2022-10-05T01:15:01.257Z,77.20
2022-10-05T01:15:21.883Z,76.75
2022-10-05T01:15:55.594Z,76.72
2022-10-05T01:16:11.427Z,76.71
2022-10-05T01:16:53.904Z,76.59
2022-10-05T01:17:13.783Z,77.00
2022-10-05T01:17:36.935Z,76.94
2022-10-05T01:18:22.017Z,77.34
2022-10-05T01:19:14.136Z,77.42
2022-10-05T01:19:39.829Z,77.20
2022-10-05T01:20:11.447Z,77.28
2022-10-05T01:20:49.451Z,77.33
2022-10-05T01:21:34.610Z,77.35
2022-10-05T01:21:54.092Z,77.27
2022-10-05T01:22:26.165Z,77.35
2022-10-05T01:23:07.640Z,77.13
2022-10-05T01:23:34.545Z,77.20
2022-10-05T01:24:57.652Z,77.50
2022-10-05T01:25:48.479Z,78.13
2022-10-05T01:26:34.326Z,77.82
2022-10-05T01:27:05.851Z,78.09
2022-10-05T01:27:17.736Z,77.60
2022-10-05T01:27:44.216Z,77.72
2022-10-05T01:28:17.161Z,77.47
2022-10-05T01:28:43.327Z,77.38
2022-10-05T01:29:11.492Z,77.74
2022-10-05T01:29:42.399Z,78.22
2022-10-05T01:30:04.268Z,78.24
2022-10-05T01:30:20.127Z,78.13
2022-10-05T01:30:39.660Z,78.34
2022-10-05T01:30:57.262Z,78.06
2022-10-05T01:31:24.090Z,78.17
2022-10-05T01:31:51.848Z,77.60
2022-10-05T01:32:08.861Z,77.37
2022-10-05T01:32:23.797Z,77.22
2022-10-05T01:32:48.624Z,76.78
2022-10-05T01:33:19.019Z,77.45
2022-10-05T01:33:50.734Z,77.12
2022-10-05T01:34:10.586Z,76.78
2022-10-05T01:34:44.296Z,76.52
2022-10-05T01:35:33.739Z,76.61
2022-10-05T01:36:02.433Z,76.16
2022-10-05T01:36:31.398Z,76.64
2022-10-05T01:37:04.748Z,76.20
2022-10-05T01:37:38.115Z,76.04
2022-10-05T01:38:08.038Z,76.17
2022-10-05T01:38:44.524Z,76.43
2022-10-05T01:39:04.045Z,76.24
2022-10-05T01:39:52.064Z,76.36
2022-10-05T01:40:27.443Z,76.44
2022-10-05T01:40:53.468Z,76.16
2022-10-05T01:41:23.059Z,76.17
2022-10-05T01:42:00.168Z,76.53
2022-10-05T01:42:33.188Z,76.71
2022-10-05T01:42:45.096Z,76.55
2022-10-05T01:43:18.448Z,76.40
2022-10-05T01:43:45.931Z,76.27
2022-10-05T01:44:09.878Z,76.01
2022-10-05T01:44:31.528Z,76.17
2022-10-05T01:45:19.527Z,76.36
2022-10-05T01:45:46.212Z,76.64
2022-10-05T01:46:14.268Z,77.01
2022-10-05T01:47:11.486Z,76.33
2022-10-05T01:47:29.167Z,76.64
2022-10-05T01:48:25.604Z,76.79
2022-10-05T01:49:18.530Z,77.27
2022-10-05T01:49:33.014Z,77.11
2022-10-05T01:49:52.434Z,77.05
2022-10-05T01:50:11.225Z,76.92
2022-10-05T01:50:23.200Z,76.97
2022-10-05T01:50:50.268Z,77.03
2022-10-05T01:51:02.115Z,76.68
2022-10-05T01:51:27.933Z,76.28
2022-10-05T01:52:18.520Z,76.44
2022-10-05T01:52:45.392Z,76.46
2022-10-05T01:53:24.752Z,76.90
2022-10-05T01:54:07.397Z,76.85
2022-10-05T01:54:24.951Z,76.83
2022-10-05T01:55:00.943Z,77.10
2022-10-05T01:55:22.736Z,76.80
2022-10-05T01:56:14.452Z,77.19
2022-10-05T01:56:48.274Z,76.85
2022-10-05T01:57:18.197Z,77.07
2022-10-05T01:58:06.360Z,77.13
2022-10-05T01:58:36.336Z,77.05
2022-10-05T01:59:19.051Z,76.89
2022-10-05T01:59:36.572Z,76.90
2022-10-05T02:00:07.548Z,77.35
2022-10-05T02:00:19.953Z,77.33
2022-10-05T02:00:53.971Z,77.16
2022-10-05T02:01:25.495Z,76.63
2022-10-05T02:01:49.552Z,76.82
2022-10-05T02:02:06.146Z,76.42
2022-10-05T02:02:22.000Z,76.30
2022-10-05T02:02:39.293Z,76.48
2022-10-05T02:03:04.767Z,76.58
2022-10-05T02:03:26.614Z,75.92
2022-10-05T02:03:45.203Z,76.32
2022-10-05T02:04:05.867Z,75.91
2022-10-05T02:05:02.390Z,76.16
2022-10-05T02:05:37.797Z,75.88
2022-10-05T02:05:56.593Z,76.50
2022-10-05T02:06:21.335Z,76.42
2022-10-05T02:06:40.460Z,76.56
2022-10-05T02:06:53.831Z,76.16
2022-10-05T02:07:13.804Z,76.76
2022-10-05T02:07:54.088Z,76.62
2022-10-05T02:08:14.044Z,76.75
2022-10-05T02:08:38.476Z,77.15
2022-10-05T02:09:05.654Z,77.00
2022-10-05T02:09:22.078Z,76.39
2022-10-05T02:09:40.716Z,76.76
2022-10-05T02:10:00.176Z,76.86
2022-10-05T02:10:22.621Z,77.22
2022-10-05T02:10:39.349Z,77.15
2022-10-05T02:11:12.950Z,77.54
2022-10-05T02:11:24.955Z,77.62
2022-10-05T02:11:41.995Z,77.52
2022-10-05T02:12:28.119Z,77.99
2022-10-05T02:13:54.658Z,77.73
2022-10-05T02:14:22.444Z,77.45
2022-10-05T02:14:40.732Z,77.17
2022-10-05T02:14:57.624Z,77.50
2022-10-05T02:15:18.343Z,77.44
2022-10-05T02:15:39.004Z,77.68
2022-10-05T02:16:00.422Z,77.13
2022-10-05T02:16:38.746Z,77.04
2022-10-05T02:16:54.013Z,77.02
2022-10-05T02:17:14.096Z,77.05
2022-10-05T02:17:45.378Z,77.19
2022-10-05T02:18:05.371Z,77.04
2022-10-05T02:18:21.661Z,76.96
2022-10-05T02:18:56.492Z,77.12
2022-10-05T02:19:16.903Z,76.66
2022-10-05T02:19:40.846Z,76.78
2022-10-05T02:20:02.249Z,76.76
2022-10-05T02:20:22.425Z,77.17
2022-10-05T02:20:37.496Z,77.51
2022-10-05T02:20:52.258Z,77.54
2022-10-05T02:21:04.592Z,77.67
2022-10-05T02:21:18.593Z,77.37
2022-10-05T02:21:34.041Z,77.43
2022-10-05T02:21:54.268Z,77.19
2022-10-05T02:22:15.647Z,77.38
2022-10-05T02:22:46.916Z,76.95
2022-10-05T02:23:04.615Z,76.71
2022-10-05T02:23:24.000Z,77.00
2022-10-05T02:23:39.709Z,77.16
2022-10-05T02:23:56.646Z,77.59
2022-10-05T02:24:13.117Z,77.79
2022-10-05T02:24:32.345Z,77.45
2022-10-05T02:25:06.451Z,77.77
2022-10-05T02:25:26.406Z,77.44
2022-10-05T02:25:42.673Z,77.24
2022-10-05T02:25:56.363Z,77.42
2022-10-05T02:26:11.449Z,77.23
2022-10-05T02:26:25.672Z,77.24
2022-10-05T02:26:39.237Z,77.50
2022-10-05T02:26:53.948Z,77.56
2022-10-05T02:27:09.175Z,77.11
2022-10-05T02:27:33.061Z,77.18
2022-10-05T02:28:04.185Z,77.04
2022-10-05T02:28:23.555Z,77.05
2022-10-05T02:28:51.224Z,77.00
2022-10-05T02:29:08.128Z,76.92
2022-10-05T02:29:23.977Z,76.80
2022-10-05T02:29:39.736Z,77.02
2022-10-05T02:29:55.040Z,76.51
2022-10-05T02:30:12.791Z,76.75
2022-10-05T02:30:30.347Z,77.00
2022-10-05T02:30:50.259Z,76.72
2022-10-05T02:31:10.937Z,76.53
2022-10-05T02:31:29.110Z,76.41
2022-10-05T02:31:49.580Z,76.80
2022-10-05T02:32:10.135Z,77.00
2022-10-05T02:32:26.490Z,76.69
2022-10-05T02:32:49.687Z,76.39
2022-10-05T02:33:06.719Z,76.44
2022-10-05T02:33:29.937Z,76.27
2022-10-05T02:33:41.988Z,76.52
2022-10-05T02:34:25.097Z,74.94
2022-10-05T02:34:43.659Z,75.09
2022-10-05T02:35:02.193Z,75.25
2022-10-05T02:35:17.193Z,75.30
2022-10-05T02:35:29.101Z,75.91
2022-10-05T02:35:41.326Z,75.68
2022-10-05T02:35:53.381Z,75.73
2022-10-05T02:36:13.753Z,75.29
2022-10-05T02:36:36.302Z,75.50
2022-10-05T02:36:55.756Z,75.37
2022-10-05T02:37:26.126Z,74.63
2022-10-05T02:37:58.625Z,74.28
2022-10-05T02:38:17.483Z,75.00
2022-10-05T02:38:59.372Z,75.50
2022-10-05T02:39:26.244Z,76.15
2022-10-05T02:40:04.816Z,76.65
2022-10-05T02:40:57.227Z,76.81
2022-10-05T02:41:24.465Z,76.47
2022-10-05T02:41:45.240Z,76.52
2022-10-05T02:42:02.640Z,76.53
2022-10-05T02:42:28.569Z,76.63
2022-10-05T02:43:25.169Z,77.14
2022-10-05T02:43:42.728Z,77.39
2022-10-05T02:44:31.945Z,77.44
2022-10-05T02:45:00.624Z,77.56
2022-10-05T02:45:44.488Z,77.91
2022-10-05T02:46:18.483Z,78.04
2022-10-05T02:47:07.741Z,77.98
2022-10-05T02:47:33.491Z,78.29
2022-10-05T02:48:03.622Z,78.06
2022-10-05T02:48:34.673Z,78.22
2022-10-05T02:49:18.003Z,78.39
2022-10-05T02:49:42.998Z,78.49
2022-10-05T02:50:24.307Z,78.58
2022-10-05T02:50:58.135Z,79.12
2022-10-05T02:51:18.836Z,79.07
2022-10-05T02:51:37.292Z,79.44
2022-10-05T02:52:06.526Z,79.66
2022-10-05T02:52:27.439Z,79.19
2022-10-05T02:52:54.381Z,79.53
2022-10-05T02:53:15.813Z,79.06
2022-10-05T02:53:34.693Z,78.92
2022-10-05T02:53:49.449Z,79.16
2022-10-05T02:54:53.369Z,79.73
2022-10-05T02:55:32.583Z,81.26
2022-10-05T02:55:55.020Z,81.12
2022-10-05T02:56:29.857Z,81.43
2022-10-05T02:56:56.668Z,81.51
2022-10-05T02:57:38.879Z,82.03
2022-10-05T02:58:04.214Z,81.64
2022-10-05T02:58:22.328Z,82.24
2022-10-05T02:58:59.518Z,81.84
2022-10-05T02:59:27.376Z,81.75
2022-10-05T02:59:57.964Z,81.62
2022-10-05T03:00:15.192Z,81.69
2022-10-05T03:00:34.093Z,81.87
2022-10-05T03:00:50.599Z,82.43
2022-10-05T03:01:05.473Z,82.56
2022-10-05T03:01:27.785Z,82.27
2022-10-05T03:02:04.401Z,81.99
2022-10-05T03:02:26.638Z,82.22
2022-10-05T03:02:48.758Z,82.56
2022-10-05T03:03:14.054Z,83.21
2022-10-05T03:03:36.393Z,83.35
2022-10-05T03:04:00.202Z,83.15
2022-10-05T03:04:42.694Z,82.85
2022-10-05T03:05:27.908Z,82.06
2022-10-05T03:05:53.388Z,80.93
2022-10-05T03:06:17.296Z,80.56
2022-10-05T03:06:37.470Z,81.15
2022-10-05T03:07:16.864Z,81.81
2022-10-05T03:07:50.320Z,82.37
2022-10-05T03:08:08.529Z,82.54
2022-10-05T03:08:41.761Z,82.09
2022-10-05T03:09:02.882Z,82.03
2022-10-05T03:09:17.591Z,82.02
2022-10-05T03:09:35.385Z,82.00
2022-10-05T03:10:11.809Z,81.37
2022-10-05T03:10:45.458Z,81.39
2022-10-05T03:11:11.420Z,81.41
2022-10-05T03:11:37.540Z,81.42
2022-10-05T03:12:13.317Z,81.32
2022-10-05T03:12:33.954Z,81.10
2022-10-05T03:13:09.975Z,81.38
2022-10-05T03:13:24.391Z,81.55
2022-10-05T03:13:59.731Z,80.86
2022-10-05T03:14:22.267Z,80.86
2022-10-05T03:14:58.118Z,80.70
2022-10-05T03:15:30.903Z,80.62
2022-10-05T03:15:55.881Z,80.28
2022-10-05T03:16:34.107Z,80.28
2022-10-05T03:17:02.342Z,79.64
2022-10-05T03:17:25.313Z,79.27
2022-10-05T03:18:03.489Z,78.87
2022-10-05T03:18:29.877Z,79.04
2022-10-05T03:18:59.032Z,78.74
2022-10-05T03:19:40.334Z,79.05
2022-10-05T03:20:22.709Z,79.13
2022-10-05T03:20:53.609Z,79.27
2022-10-05T03:21:23.667Z,79.64
2022-10-05T03:22:07.557Z,79.73
2022-10-05T03:22:33.238Z,79.75
2022-10-05T03:22:51.076Z,79.94
2022-10-05T03:23:09.610Z,79.95
2022-10-05T03:23:30.270Z,79.52
2022-10-05T03:23:47.757Z,79.87
2022-10-05T03:24:41.268Z,80.03
2022-10-05T03:25:01.863Z,79.69
2022-10-05T03:25:28.666Z,79.52
2022-10-05T03:25:49.118Z,79.62
2022-10-05T03:26:07.125Z,79.81
2022-10-05T03:26:27.989Z,80.05
2022-10-05T03:26:42.765Z,80.27
2022-10-05T03:27:07.075Z,80.42
2022-10-05T03:28:02.344Z,79.97
2022-10-05T03:28:30.780Z,79.09
2022-10-05T03:28:51.390Z,78.79
2022-10-05T03:29:14.018Z,78.23
2022-10-05T03:29:28.545Z,78.24
2022-10-05T03:29:47.813Z,78.44
2022-10-05T03:30:13.143Z,79.07
2022-10-05T03:30:30.166Z,79.54
2022-10-05T03:30:47.894Z,79.43
2022-10-05T03:30:59.817Z,79.26
2022-10-05T03:31:36.993Z,79.60
2022-10-05T03:31:58.758Z,80.04
2022-10-05T03:32:30.391Z,80.06
2022-10-05T03:33:21.336Z,80.18
2022-10-05T03:33:46.831Z,80.02
2022-10-05T03:34:15.237Z,79.99
2022-10-05T03:34:41.005Z,79.92
2022-10-05T03:35:23.090Z,80.25
2022-10-05T03:35:49.049Z,80.44
2022-10-05T03:36:21.720Z,80.37
2022-10-05T03:36:58.171Z,80.49
2022-10-05T03:37:49.208Z,80.61
2022-10-05T03:38:12.818Z,80.28
2022-10-05T03:38:41.334Z,80.08
2022-10-05T03:39:08.224Z,79.97
2022-10-05T03:39:25.695Z,79.33
2022-10-05T03:40:03.476Z,79.79
2022-10-05T03:40:33.754Z,79.48
2022-10-05T03:41:03.663Z,79.52
2022-10-05T03:41:27.461Z,79.52
2022-10-05T03:41:52.820Z,79.50
2022-10-05T03:42:23.437Z,79.92
2022-10-05T03:42:46.092Z,79.85
2022-10-05T03:43:22.874Z,79.66
2022-10-05T03:43:46.727Z,79.94
2022-10-05T03:44:16.561Z,79.86
2022-10-05T03:44:37.408Z,79.24
2022-10-05T03:45:17.122Z,79.30
2022-10-05T03:45:58.126Z,79.19
2022-10-05T03:46:50.524Z,78.87
2022-10-05T03:47:10.941Z,78.85
2022-10-05T03:47:39.191Z,78.79
2022-10-05T03:48:08.581Z,78.50
2022-10-05T03:48:51.404Z,78.59
2022-10-05T03:49:18.370Z,78.58
2022-10-05T03:50:09.311Z,78.64
2022-10-05T03:50:34.058Z,78.39
2022-10-05T03:51:01.184Z,78.14
2022-10-05T03:51:22.163Z,78.24
2022-10-05T03:51:40.350Z,78.52
2022-10-05T03:52:01.893Z,78.15
2022-10-05T03:52:18.624Z,78.06
2022-10-05T03:52:42.346Z,77.90
2022-10-05T03:53:03.057Z,77.81
2022-10-05T03:53:26.039Z,78.20
2022-10-05T03:53:44.593Z,78.04
2022-10-05T03:54:23.026Z,78.16
2022-10-05T03:54:48.466Z,77.93
2022-10-05T03:55:09.388Z,77.67
2022-10-05T03:55:31.043Z,77.79
2022-10-05T03:55:59.565Z,77.72
2022-10-05T03:56:33.826Z,77.20
2022-10-05T03:56:52.705Z,77.08
2022-10-05T03:57:21.722Z,77.01
2022-10-05T03:57:38.736Z,77.14
2022-10-05T03:57:54.461Z,77.30
2022-10-05T03:58:17.125Z,77.73
2022-10-05T03:58:38.519Z,77.60
2022-10-05T03:58:58.300Z,77.48
2022-10-05T03:59:18.232Z,77.23
2022-10-05T03:59:40.392Z,77.20
2022-10-05T04:00:01.133Z,77.10
2022-10-05T04:00:19.505Z,77.16
2022-10-05T04:00:33.602Z,77.14
2022-10-05T04:00:51.713Z,76.84
2022-10-05T04:01:10.237Z,77.01
2022-10-05T04:01:30.556Z,77.36
2022-10-05T04:01:51.871Z,77.12
2022-10-05T04:02:34.194Z,77.15
2022-10-05T04:02:57.862Z,77.21
2022-10-05T04:03:20.283Z,76.97
2022-10-05T04:03:39.542Z,77.04
2022-10-05T04:03:59.229Z,77.21
2022-10-05T04:04:18.755Z,77.40
2022-10-05T04:04:41.103Z,77.01
2022-10-05T04:04:58.539Z,77.63
2022-10-05T04:05:10.411Z,77.48
2022-10-05T04:05:29.756Z,77.49
2022-10-05T04:05:59.790Z,77.84
2022-10-05T04:06:26.286Z,77.69
2022-10-05T04:06:45.456Z,77.61
2022-10-05T04:06:57.944Z,77.12
2022-10-05T04:07:25.738Z,77.21
2022-10-05T04:07:46.808Z,77.54
2022-10-05T04:08:01.637Z,77.43
2022-10-05T04:08:25.011Z,77.31
2022-10-05T04:08:49.570Z,77.07
2022-10-05T04:09:04.024Z,76.94
2022-10-05T04:09:25.023Z,76.84
2022-10-05T04:09:41.943Z,77.15
2022-10-05T04:09:55.838Z,77.32
2022-10-05T04:10:16.010Z,77.74
2022-10-05T04:10:37.518Z,77.44
2022-10-05T04:10:57.021Z,77.10
2022-10-05T04:11:14.487Z,77.81
2022-10-05T04:11:52.478Z,77.78
2022-10-05T04:12:30.331Z,78.04
2022-10-05T04:12:54.527Z,77.62
2022-10-05T04:13:13.620Z,77.28
2022-10-05T04:13:37.234Z,77.25
2022-10-05T04:13:54.370Z,77.22
2022-10-05T04:14:14.957Z,77.62
2022-10-05T04:14:49.862Z,77.80
2022-10-05T04:15:18.901Z,77.68
2022-10-05T04:15:42.164Z,78.00
2022-10-05T04:16:06.528Z,77.83
2022-10-05T04:16:25.248Z,77.99
2022-10-05T04:16:49.641Z,78.02
2022-10-05T04:17:09.599Z,77.96
2022-10-05T04:17:35.443Z,77.82
2022-10-05T04:17:54.851Z,77.58
2022-10-05T04:18:27.336Z,77.52
2022-10-05T04:18:45.642Z,77.28
2022-10-05T04:19:23.425Z,77.83
2022-10-05T04:19:59.841Z,77.50
2022-10-05T04:20:27.316Z,77.46
2022-10-05T04:20:46.929Z,77.54
2022-10-05T04:21:05.462Z,77.34
2022-10-05T04:21:56.067Z,77.18
2022-10-05T04:22:13.375Z,77.27
2022-10-05T04:22:37.121Z,77.53
2022-10-05T04:22:58.597Z,77.49
2022-10-05T04:23:10.440Z,77.50
2022-10-05T04:23:38.197Z,77.13
2022-10-05T04:23:53.035Z,77.06
2022-10-05T04:24:13.335Z,77.09
2022-10-05T04:24:39.558Z,77.08
2022-10-05T04:25:17.580Z,76.88
2022-10-05T04:25:35.011Z,77.09
2022-10-05T04:25:53.944Z,77.29
2022-10-05T04:26:18.554Z,76.86
2022-10-05T04:26:53.341Z,76.65
2022-10-05T04:27:15.076Z,76.96
2022-10-05T04:27:34.431Z,76.30
2022-10-05T04:28:10.120Z,76.61
2022-10-05T04:28:33.149Z,76.74
2022-10-05T04:29:16.214Z,76.67
2022-10-05T04:29:38.913Z,76.84
2022-10-05T04:30:00.409Z,76.82
2022-10-05T04:30:16.629Z,77.16
2022-10-05T04:30:30.406Z,77.14
2022-10-05T04:30:45.861Z,76.95
2022-10-05T04:31:00.153Z,77.31
2022-10-05T04:31:19.700Z,77.27
2022-10-05T04:31:56.384Z,77.70
2022-10-05T04:32:35.472Z,77.28
2022-10-05T04:32:53.326Z,77.04
2022-10-05T04:33:09.546Z,77.32
2022-10-05T04:33:22.135Z,77.42
2022-10-05T04:33:34.138Z,77.42
2022-10-05T04:33:53.137Z,77.63
2022-10-05T04:34:32.453Z,77.48
2022-10-05T04:35:02.914Z,77.44
2022-10-05T04:35:30.080Z,77.34
2022-10-05T04:36:06.295Z,77.57
2022-10-05T04:36:34.528Z,77.75
2022-10-05T04:36:57.080Z,77.53
2022-10-05T04:37:34.471Z,77.33
2022-10-05T04:38:04.192Z,76.81
2022-10-05T04:38:27.925Z,77.06
2022-10-05T04:39:02.658Z,76.93
2022-10-05T04:39:14.499Z,76.80
2022-10-05T04:39:49.719Z,76.84
2022-10-05T04:40:32.553Z,76.98
2022-10-05T04:41:21.601Z,76.60
2022-10-05T04:41:39.226Z,76.99
2022-10-05T04:42:15.732Z,76.95
2022-10-05T04:42:40.158Z,76.64
2022-10-05T04:43:13.005Z,76.83
2022-10-05T04:43:48.245Z,77.33
2022-10-05T04:44:24.068Z,77.36
2022-10-05T04:44:48.144Z,77.48
2022-10-05T04:45:12.027Z,76.87
2022-10-05T04:45:43.319Z,76.95
2022-10-05T04:46:14.482Z,76.93
2022-10-05T04:46:44.755Z,76.50
2022-10-05T04:47:15.766Z,76.50
2022-10-05T04:47:33.400Z,76.19
2022-10-05T04:48:06.581Z,76.30
2022-10-05T04:48:18.491Z,76.43
2022-10-05T04:48:30.331Z,76.13
2022-10-05T04:49:06.138Z,76.57
2022-10-05T04:49:36.268Z,76.21
2022-10-05T04:50:24.965Z,76.36
2022-10-05T04:50:53.037Z,76.41
2022-10-05T04:51:16.590Z,76.43
2022-10-05T04:51:31.042Z,76.59
2022-10-05T04:52:01.393Z,76.34
2022-10-05T04:52:28.146Z,76.60
2022-10-05T04:53:20.528Z,76.52
2022-10-05T04:53:56.712Z,75.99
2022-10-05T04:54:21.565Z,76.33
2022-10-05T04:54:57.712Z,76.32
2022-10-05T04:55:18.253Z,76.35
2022-10-05T04:56:07.485Z,76.69
2022-10-05T04:56:28.196Z,76.45
2022-10-05T04:56:44.779Z,76.62
2022-10-05T04:57:03.709Z,76.40
2022-10-05T04:57:38.347Z,76.16
2022-10-05T04:58:09.489Z,76.51
2022-10-05T04:58:21.441Z,76.94
2022-10-05T04:59:10.885Z,77.28
2022-10-05T04:59:41.114Z,77.34
2022-10-05T05:00:01.692Z,77.53
2022-10-05T05:00:25.323Z,77.54
2022-10-05T05:01:10.494Z,77.32
2022-10-05T05:01:36.055Z,77.74
2022-10-05T05:01:50.560Z,77.68
2022-10-05T05:02:36.158Z,77.63
2022-10-05T05:03:25.433Z,77.46
2022-10-05T05:03:48.744Z,77.37
2022-10-05T05:04:19.484Z,77.12
2022-10-05T05:04:54.541Z,77.15
2022-10-05T05:05:09.005Z,77.04
2022-10-05T05:05:28.549Z,77.03
2022-10-05T05:06:17.263Z,76.80
2022-10-05T05:06:46.716Z,76.83
2022-10-05T05:07:06.002Z,76.96
2022-10-05T05:07:44.656Z,76.74
2022-10-05T05:08:05.945Z,76.89
2022-10-05T05:08:35.181Z,76.84
2022-10-05T05:09:13.551Z,77.13
2022-10-05T05:09:44.207Z,76.85
2022-10-05T05:10:01.871Z,76.77
2022-10-05T05:11:17.397Z,76.67
2022-10-05T05:11:48.443Z,77.00
2022-10-05T05:12:12.292Z,77.10
2022-10-05T05:12:32.766Z,76.99
2022-10-05T05:12:57.701Z,76.78
2022-10-05T05:13:45.060Z,76.69
2022-10-05T05:14:32.151Z,77.16
2022-10-05T05:15:02.392Z,76.72
2022-10-05T05:15:40.128Z,76.65
2022-10-05T05:16:09.983Z,76.74
2022-10-05T05:16:41.080Z,76.65
2022-10-05T05:17:29.617Z,76.83
2022-10-05T05:18:06.474Z,77.26
2022-10-05T05:19:03.020Z,77.15
2022-10-05T05:19:17.769Z,77.31
2022-10-05T05:19:43.326Z,77.39
2022-10-05T05:20:11.397Z,77.71
2022-10-05T05:20:44.901Z,77.68